createdAt,value
2018-06-12T00:00:36.807Z,18.03
2018-06-12T00:03:05.636Z,17.97
2018-06-12T00:05:34.422Z,18.53
2018-06-12T00:08:03.327Z,17.17
2018-06-12T00:10:32.445Z,16.40
2018-06-12T00:13:01.842Z,18.90
2018-06-12T00:15:31.774Z,17.17
2018-06-12T00:18:00.792Z,15.40
2018-06-12T00:20:29.616Z,19.20
2018-06-12T00:22:58.496Z,21.17
2018-06-12T00:25:38.308Z,16.23
2018-06-12T00:28:07.138Z,21.00
2018-06-12T00:30:35.948Z,19.90
2018-06-12T00:33:04.800Z,18.50
2018-06-12T00:35:33.620Z,16.70
2018-06-12T00:38:02.550Z,22.47
2018-06-12T00:40:31.670Z,20.97
2018-06-12T00:43:00.544Z,21.57
2018-06-12T00:45:29.348Z,22.93
2018-06-12T00:47:58.188Z,24.90
2018-06-12T00:50:27.297Z,19.90
2018-06-12T00:52:56.148Z,20.50
2018-06-12T00:55:24.958Z,22.90
2018-06-12T00:57:53.884Z,25.47
2018-06-12T01:00:22.854Z,22.63
2018-06-12T01:02:51.969Z,21.80
2018-06-12T01:05:20.935Z,18.90
2018-06-12T01:07:50.381Z,19.90
2018-06-12T01:10:19.229Z,18.93
2018-06-12T01:12:48.290Z,24.10
2018-06-12T01:15:17.127Z,22.77
2018-06-12T01:17:45.997Z,17.10
2018-06-12T01:20:15.057Z,19.20
2018-06-12T01:22:43.879Z,18.43
2018-06-12T01:25:12.708Z,16.70
2018-06-12T01:27:41.770Z,20.57
2018-06-12T01:30:10.694Z,19.90
2018-06-12T01:32:39.565Z,17.73
2018-06-12T01:35:08.351Z,17.10
2018-06-12T01:37:37.205Z,15.67
2018-06-12T01:40:06.183Z,20.33
2018-06-12T01:42:35.013Z,24.40
2018-06-12T01:45:03.905Z,22.57
2018-06-12T01:47:32.723Z,19.33
2018-06-12T01:50:01.558Z,19.13
2018-06-12T01:52:30.590Z,21.53
2018-06-12T01:54:59.313Z,22.93
2018-06-12T01:57:28.401Z,20.10
2018-06-12T01:59:57.393Z,19.50
2018-06-12T02:02:26.088Z,20.60
2018-06-12T02:04:54.827Z,21.10
2018-06-12T02:07:23.665Z,22.70
2018-06-12T02:09:52.685Z,22.70
2018-06-12T02:12:21.562Z,21.60
2018-06-12T02:14:50.521Z,21.27
2018-06-12T02:17:19.347Z,19.50
2018-06-12T02:19:48.232Z,23.90
2018-06-12T02:22:17.043Z,22.80
2018-06-12T02:24:45.984Z,21.00
2018-06-12T02:27:14.897Z,21.63
2018-06-12T02:29:43.665Z,23.57
2018-06-12T02:32:12.904Z,23.60
2018-06-12T02:34:41.663Z,27.70
2018-06-12T02:37:10.451Z,26.40
2018-06-12T02:39:39.421Z,21.80
2018-06-12T02:42:08.750Z,24.03
2018-06-12T02:44:37.698Z,18.83
2018-06-12T02:47:06.448Z,21.07
2018-06-12T02:49:35.272Z,20.13
2018-06-12T02:52:04.110Z,15.03
2018-06-12T02:54:33.309Z,19.63
2018-06-12T02:57:02.053Z,16.43
2018-06-12T02:59:31.044Z,17.97
2018-06-12T03:02:01.200Z,14.37
2018-06-12T03:04:29.967Z,13.50
2018-06-12T03:06:58.922Z,17.10
2018-06-12T03:09:27.728Z,13.90
2018-06-12T03:11:56.403Z,11.97
2018-06-12T03:14:25.142Z,12.90
2018-06-12T03:16:54.237Z,12.33
2018-06-12T03:19:23.137Z,13.47
2018-06-12T03:21:52.313Z,14.30
2018-06-12T03:24:21.388Z,16.47
2018-06-12T03:26:50.189Z,15.03
2018-06-12T03:29:18.997Z,14.53
2018-06-12T03:31:47.846Z,18.83
2018-06-12T03:34:16.684Z,16.77
2018-06-12T03:36:46.054Z,18.10
2018-06-12T03:39:14.898Z,13.97
2018-06-12T03:41:43.669Z,14.33
2018-06-12T03:44:12.477Z,14.10
2018-06-12T03:46:41.671Z,14.87
2018-06-12T03:49:10.527Z,14.70
2018-06-12T03:51:39.367Z,17.20
2018-06-12T03:54:08.373Z,13.93
2018-06-12T03:59:31.545Z,19.13
2018-06-12T04:02:00.378Z,16.43
2018-06-12T04:04:29.259Z,13.00
2018-06-12T04:06:58.189Z,16.40
2018-06-12T04:09:26.924Z,15.10
2018-06-12T04:11:55.992Z,14.03
2018-06-12T04:14:30.674Z,13.00
2018-06-12T04:17:05.672Z,13.63
2018-06-12T04:19:37.469Z,13.13
2018-06-12T04:22:10.823Z,15.90
2018-06-12T04:24:40.311Z,20.17
2018-06-12T04:27:08.893Z,14.97
2018-06-12T04:29:37.625Z,12.73
2018-06-12T04:32:06.469Z,12.87
2018-06-12T04:34:35.249Z,13.47
2018-06-12T04:37:04.047Z,13.23
2018-06-12T04:39:32.741Z,15.00
2018-06-12T04:42:01.450Z,13.53
2018-06-12T04:44:30.198Z,15.77
2018-06-12T04:46:59.015Z,11.60
2018-06-12T04:49:27.820Z,12.77
2018-06-12T04:51:56.685Z,14.30
2018-06-12T04:54:25.515Z,12.80
2018-06-12T04:56:54.670Z,13.80
2018-06-12T04:59:23.490Z,15.57
2018-06-12T05:01:57.893Z,11.33
2018-06-12T05:04:26.713Z,11.17
2018-06-12T05:06:55.611Z,13.83
2018-06-12T05:09:24.393Z,15.73
2018-06-12T05:11:53.175Z,15.20
2018-06-12T05:14:22.038Z,11.97
2018-06-12T05:16:50.656Z,13.93
2018-06-12T05:19:19.517Z,14.97
2018-06-12T05:21:48.200Z,17.80
2018-06-12T05:24:17.594Z,15.77
2018-06-12T05:26:46.417Z,19.13
2018-06-12T05:29:15.562Z,17.33
2018-06-12T05:31:44.438Z,16.03
2018-06-12T05:36:59.078Z,18.67
2018-06-12T05:39:27.793Z,15.37
2018-06-12T05:41:56.728Z,17.90
2018-06-12T05:44:25.375Z,15.23
2018-06-12T05:46:54.661Z,16.73
2018-06-12T05:49:23.385Z,16.80
2018-06-12T05:51:52.015Z,15.30
2018-06-12T05:54:21.031Z,17.03
2018-06-12T05:56:49.751Z,16.83
2018-06-12T05:59:18.305Z,17.30
2018-06-12T06:01:46.881Z,19.87
2018-06-12T06:04:15.673Z,15.70
2018-06-12T06:06:45.408Z,16.53
2018-06-12T06:09:14.137Z,15.73
2018-06-12T06:11:43.072Z,18.47
2018-06-12T06:14:19.999Z,20.30
2018-06-12T06:16:49.933Z,19.23
2018-06-12T06:19:20.661Z,15.97
2018-06-12T06:21:49.984Z,17.30
2018-06-12T06:24:19.014Z,19.40
2018-06-12T06:26:48.098Z,19.07
2018-06-12T06:29:20.254Z,21.73
2018-06-12T06:31:48.755Z,20.90
2018-06-12T06:34:20.810Z,24.20
2018-06-12T06:39:43.898Z,21.40
2018-06-12T06:42:12.306Z,19.83
2018-06-12T06:44:40.968Z,22.77
2018-06-12T06:47:09.392Z,26.30
2018-06-12T06:49:37.735Z,21.40
2018-06-12T06:52:06.380Z,22.93
2018-06-12T06:54:34.790Z,19.33
2018-06-12T06:57:03.350Z,24.27
2018-06-12T06:59:31.601Z,24.90
2018-06-12T07:01:59.809Z,24.30
2018-06-12T07:04:28.071Z,21.37
2018-06-12T07:06:56.313Z,24.33
2018-06-12T07:09:24.672Z,27.00
2018-06-12T07:11:53.065Z,24.40
2018-06-12T07:14:23.052Z,26.70
2018-06-12T07:16:51.604Z,26.73
2018-06-12T07:19:19.944Z,24.33
2018-06-12T07:21:48.279Z,24.03
2018-06-12T07:24:16.433Z,24.73
2018-06-12T07:26:44.680Z,26.43
2018-06-12T07:29:13.268Z,25.67
2018-06-12T07:31:41.578Z,24.50
2018-06-12T07:34:09.786Z,24.90
2018-06-12T07:36:38.022Z,26.83
2018-06-12T07:39:07.324Z,24.50
2018-06-12T07:41:35.676Z,24.83
2018-06-12T07:44:04.047Z,28.83
2018-06-12T07:46:32.378Z,30.20
2018-06-12T07:49:01.417Z,25.63
2018-06-12T07:51:29.813Z,28.97
2018-06-12T07:53:59.086Z,28.27
2018-06-12T07:56:27.303Z,28.70
2018-06-12T07:58:55.986Z,31.23
2018-06-12T08:01:24.927Z,29.53
2018-06-12T08:03:53.268Z,26.47
2018-06-12T08:06:21.641Z,30.27
2018-06-12T08:08:49.933Z,33.87
2018-06-12T08:11:18.393Z,34.53
2018-06-12T08:13:46.650Z,30.03
2018-06-12T08:16:15.003Z,30.03
2018-06-12T08:18:43.937Z,33.73
2018-06-12T08:21:12.140Z,32.20
2018-06-12T08:23:40.371Z,33.20
2018-06-12T08:26:08.693Z,33.93
2018-06-12T08:28:37.090Z,35.67
2018-06-12T08:31:05.309Z,37.83
2018-06-12T08:33:33.585Z,38.13
2018-06-12T08:36:01.901Z,118.30
2018-06-12T08:38:30.222Z,39.30
2018-06-12T08:40:58.558Z,66.47
2018-06-12T08:43:27.028Z,53.10
2018-06-12T08:45:55.417Z,41.30
2018-06-12T08:48:23.669Z,36.20
2018-06-12T08:50:52.092Z,29.43
2018-06-12T08:56:07.424Z,32.80
2018-06-12T08:58:35.893Z,20.13
2018-06-12T09:01:04.305Z,18.83
2018-06-12T09:03:32.656Z,27.13
2018-06-12T09:06:00.944Z,32.00
2018-06-12T09:08:29.200Z,20.37
2018-06-12T09:10:57.804Z,25.00
2018-06-12T09:13:25.958Z,21.13
2018-06-12T09:15:54.280Z,20.97
2018-06-12T09:18:22.678Z,22.03
2018-06-12T09:20:50.921Z,18.73
2018-06-12T09:23:19.268Z,21.33
2018-06-12T09:25:47.769Z,21.43
2018-06-12T09:28:16.173Z,17.30
2018-06-12T09:30:44.393Z,23.80
2018-06-12T09:33:12.771Z,16.23
2018-06-12T09:35:41.233Z,21.57
2018-06-12T09:38:09.461Z,20.60
2018-06-12T09:40:37.736Z,19.67
2018-06-12T09:43:05.881Z,30.00
2018-06-12T09:45:34.597Z,22.10
2018-06-12T09:48:03.209Z,19.03
2018-06-12T09:50:32.380Z,21.93
2018-06-12T09:53:01.172Z,15.30
2018-06-12T09:55:30.413Z,22.97
2018-06-12T09:57:59.061Z,19.47
2018-06-12T10:00:34.591Z,19.47
2018-06-12T10:03:06.809Z,21.97
2018-06-12T10:05:37.451Z,22.60
2018-06-12T10:08:06.566Z,19.30
2018-06-12T10:10:35.338Z,23.40
2018-06-12T10:13:03.980Z,18.47
2018-06-12T10:15:32.697Z,16.40
2018-06-12T10:18:01.262Z,20.00
2018-06-12T10:20:30.287Z,26.17
2018-06-12T10:22:59.103Z,16.73
2018-06-12T10:25:27.933Z,24.00
2018-06-12T10:27:59.180Z,20.10
2018-06-12T10:30:30.945Z,15.57
2018-06-12T10:32:59.753Z,18.33
2018-06-12T10:35:28.474Z,21.70
2018-06-12T10:37:57.193Z,18.67
2018-06-12T10:40:26.013Z,13.50
2018-06-12T10:42:55.255Z,15.73
2018-06-12T10:45:23.898Z,19.13
2018-06-12T10:47:58.763Z,15.23
2018-06-12T10:50:27.767Z,19.83
2018-06-12T10:52:57.744Z,16.67
2018-06-12T10:55:26.334Z,15.50
2018-06-12T10:57:55.018Z,11.77
2018-06-12T11:00:23.836Z,18.73
2018-06-12T11:02:54.618Z,20.70
2018-06-12T11:05:23.968Z,22.23
2018-06-12T11:07:52.735Z,18.13
2018-06-12T11:10:21.490Z,16.77
2018-06-12T11:12:50.168Z,17.27
2018-06-12T11:15:18.760Z,14.87
2018-06-12T11:17:47.867Z,13.00
2018-06-12T11:20:16.712Z,12.07
2018-06-12T11:22:45.338Z,11.80
2018-06-12T11:25:14.333Z,14.47
2018-06-12T11:27:42.939Z,10.93
2018-06-12T11:30:11.823Z,11.60
2018-06-12T11:32:40.407Z,14.07
2018-06-12T11:35:09.062Z,15.10
2018-06-12T11:37:37.956Z,11.40
2018-06-12T11:40:06.781Z,13.83
2018-06-12T11:42:35.369Z,14.20
2018-06-12T11:45:04.355Z,15.10
2018-06-12T11:47:32.864Z,12.40
2018-06-12T11:50:07.439Z,14.53
2018-06-12T11:52:35.857Z,17.20
2018-06-12T11:55:04.356Z,17.30
2018-06-12T11:57:33.201Z,18.30
2018-06-12T12:00:01.942Z,16.63
2018-06-12T12:02:30.470Z,14.77
2018-06-12T12:04:59.156Z,17.67
2018-06-12T12:07:27.978Z,16.00
2018-06-12T12:09:56.982Z,17.53
2018-06-12T12:12:25.699Z,14.63
2018-06-12T12:14:54.523Z,15.37
2018-06-12T12:17:23.284Z,10.90
2018-06-12T12:19:51.925Z,15.27
2018-06-12T12:22:22.715Z,15.07
2018-06-12T12:24:51.485Z,14.60
2018-06-12T12:27:20.251Z,16.70
2018-06-12T12:29:49.906Z,18.70
2018-06-12T12:32:18.492Z,19.73
2018-06-12T12:34:54.555Z,12.30
2018-06-12T12:37:24.818Z,12.97
2018-06-12T12:39:54.442Z,12.13
2018-06-12T12:42:23.017Z,14.70
2018-06-12T12:44:51.708Z,16.37
2018-06-12T12:47:23.023Z,15.87
2018-06-12T12:49:51.782Z,16.23
2018-06-12T12:52:20.555Z,16.70
2018-06-12T12:54:49.322Z,11.00
2018-06-12T12:57:18.458Z,15.17
2018-06-12T12:59:47.456Z,11.80
2018-06-12T13:02:16.293Z,11.77
2018-06-12T13:04:45.106Z,15.23
2018-06-12T13:07:13.901Z,11.47
2018-06-12T13:09:42.712Z,13.30
2018-06-12T13:12:11.450Z,15.83
2018-06-12T13:20:25.309Z,13.33
2018-06-12T13:22:53.843Z,18.83
2018-06-12T13:25:29.428Z,18.80
2018-06-12T13:27:58.320Z,15.00
2018-06-12T13:30:27.211Z,11.80
2018-06-12T13:32:56.770Z,12.93
2018-06-12T13:35:25.647Z,15.20
2018-06-12T13:37:54.283Z,16.43
2018-06-12T13:40:22.918Z,11.43
2018-06-12T13:42:51.756Z,13.20
2018-06-12T13:45:20.368Z,10.67
2018-06-12T13:47:48.989Z,11.50
2018-06-12T13:50:21.461Z,14.53
2018-06-12T13:52:50.205Z,13.63
2018-06-12T13:55:22.530Z,12.67
2018-06-12T13:57:51.233Z,13.70
2018-06-12T14:00:21.708Z,12.20
2018-06-12T14:02:50.525Z,15.03
2018-06-12T14:05:19.299Z,14.37
2018-06-12T14:07:48.601Z,11.30
2018-06-12T14:10:17.349Z,17.67
2018-06-12T14:12:47.013Z,15.13
2018-06-12T14:15:15.699Z,15.77
2018-06-12T14:17:44.533Z,10.43
2018-06-12T14:20:13.182Z,12.60
2018-06-12T14:22:42.103Z,12.07
2018-06-12T14:25:10.738Z,15.97
2018-06-12T14:27:43.364Z,12.93
2018-06-12T14:30:12.150Z,9.63
2018-06-12T14:32:40.986Z,18.67
2018-06-12T14:35:09.757Z,12.50
2018-06-12T14:37:38.405Z,16.53
2018-06-12T14:40:08.183Z,17.83
2018-06-12T14:42:36.935Z,14.80
2018-06-12T14:47:58.521Z,16.07
2018-06-12T14:50:27.528Z,13.63
2018-06-12T14:52:56.297Z,15.63
2018-06-12T14:55:25.301Z,13.90
2018-06-12T14:57:54.215Z,11.07
2018-06-12T15:00:22.999Z,10.57
2018-06-12T15:02:52.061Z,14.90
2018-06-12T15:05:20.854Z,15.07
2018-06-12T15:07:49.396Z,12.53
2018-06-12T15:10:18.021Z,11.00
2018-06-12T15:12:47.464Z,13.33
2018-06-12T15:15:16.277Z,14.00
2018-06-12T15:17:44.977Z,10.33
2018-06-12T15:20:14.125Z,12.90
2018-06-12T15:22:42.747Z,15.60
2018-06-12T15:25:11.437Z,11.17
2018-06-12T15:27:40.394Z,12.53
2018-06-12T15:30:09.261Z,10.33
2018-06-12T15:32:38.307Z,10.93
2018-06-12T15:35:07.003Z,9.43
2018-06-12T15:37:36.215Z,10.83
2018-06-12T15:40:05.012Z,8.57
2018-06-12T15:42:34.497Z,11.20
2018-06-12T15:45:03.092Z,8.77
2018-06-12T15:47:31.738Z,9.00
2018-06-12T15:50:08.640Z,11.90
2018-06-12T15:52:37.287Z,10.17
2018-06-12T15:55:10.698Z,11.83
2018-06-12T15:57:57.652Z,13.00
2018-06-12T16:00:38.974Z,15.13
2018-06-12T16:03:07.837Z,13.27
2018-06-12T16:05:36.823Z,13.43
2018-06-12T16:08:06.655Z,13.13
2018-06-12T16:10:35.346Z,11.33
2018-06-12T16:13:04.162Z,16.10
2018-06-12T16:15:33.330Z,14.53
2018-06-12T16:18:01.917Z,11.50
2018-06-12T16:20:30.829Z,14.83
2018-06-12T16:22:59.923Z,16.90
2018-06-12T16:25:28.742Z,17.20
2018-06-12T16:27:57.574Z,14.90
2018-06-12T16:30:29.794Z,12.13
2018-06-12T16:32:58.551Z,12.97
2018-06-12T16:35:27.306Z,13.33
2018-06-12T16:37:56.012Z,13.57
2018-06-12T16:40:27.603Z,15.60
2018-06-12T16:42:58.782Z,15.87
2018-06-12T16:45:29.028Z,15.83
2018-06-12T16:47:57.945Z,17.97
2018-06-12T16:50:26.828Z,14.87
2018-06-12T16:52:55.492Z,16.53
2018-06-12T16:55:24.134Z,13.00
2018-06-12T16:57:52.904Z,13.20
2018-06-12T17:00:21.913Z,17.60
2018-06-12T17:02:50.925Z,14.90
2018-06-12T17:05:20.285Z,12.37
2018-06-12T17:07:49.046Z,12.50
2018-06-12T17:10:17.997Z,13.10
2018-06-12T17:12:46.963Z,11.97
2018-06-12T17:15:15.656Z,9.67
2018-06-12T17:17:44.356Z,10.80
2018-06-12T17:20:13.222Z,16.03
2018-06-12T17:22:41.916Z,13.57
2018-06-12T17:25:10.630Z,11.50
2018-06-12T17:27:39.600Z,13.30
2018-06-12T17:30:08.746Z,13.17
2018-06-12T17:32:37.381Z,13.50
2018-06-12T17:35:06.105Z,15.03
2018-06-12T17:37:34.896Z,12.93
2018-06-12T17:40:04.126Z,11.30
2018-06-12T17:42:32.970Z,11.10
2018-06-12T17:45:02.574Z,16.43
2018-06-12T17:47:33.565Z,11.33
2018-06-12T17:50:02.731Z,14.33
2018-06-12T17:52:32.402Z,10.60
2018-06-12T17:55:04.465Z,13.73
2018-06-12T17:57:33.416Z,12.87
2018-06-12T18:03:04.993Z,22.03
2018-06-12T18:05:34.250Z,10.57
2018-06-12T18:08:03.632Z,13.17
2018-06-12T18:10:33.236Z,12.17
2018-06-12T18:13:02.567Z,13.27
2018-06-12T18:15:31.602Z,10.17
2018-06-12T18:18:00.622Z,12.60
2018-06-12T18:20:29.579Z,12.30
2018-06-12T18:22:58.566Z,9.47
2018-06-12T18:25:27.518Z,13.77
2018-06-12T18:27:59.195Z,13.80
2018-06-12T18:30:28.266Z,12.70
2018-06-12T18:32:57.350Z,10.67
2018-06-12T18:35:26.298Z,9.50
2018-06-12T18:37:56.402Z,14.23
2018-06-12T18:43:21.783Z,14.63
2018-06-12T18:45:53.678Z,10.73
2018-06-12T18:48:23.510Z,14.00
2018-06-12T18:50:52.555Z,15.77
2018-06-12T18:53:25.795Z,14.30
2018-06-12T18:55:54.924Z,12.13
2018-06-12T18:58:23.873Z,12.40
2018-06-12T19:00:53.133Z,15.20
2018-06-12T19:03:21.769Z,10.80
2018-06-12T19:05:50.763Z,8.93
2018-06-12T19:08:19.617Z,14.40
2018-06-12T19:10:48.426Z,9.70
2018-06-12T19:13:17.173Z,11.90
2018-06-12T19:15:46.091Z,9.30
2018-06-12T19:18:15.591Z,13.00
2018-06-12T19:20:49.149Z,11.73
2018-06-12T19:23:18.034Z,9.87
2018-06-12T19:25:46.791Z,12.70
2018-06-12T19:28:15.625Z,11.50
2018-06-12T19:30:44.943Z,13.20
2018-06-12T19:33:13.755Z,14.40
2018-06-12T19:35:42.573Z,12.53
2018-06-12T19:38:15.530Z,9.97
2018-06-12T19:40:44.299Z,11.40
2018-06-12T19:43:13.114Z,11.80
2018-06-12T19:45:42.037Z,9.07
2018-06-12T19:48:10.963Z,11.70
2018-06-12T19:50:41.792Z,11.93
2018-06-12T19:53:11.690Z,13.60
2018-06-12T19:55:45.089Z,10.13
2018-06-12T19:58:14.017Z,11.83
2018-06-12T20:00:43.830Z,9.57
2018-06-12T20:03:14.801Z,12.17
2018-06-12T20:05:43.677Z,11.43
2018-06-12T20:08:12.561Z,9.43
2018-06-12T20:10:41.362Z,8.93
2018-06-12T20:13:10.315Z,10.13
2018-06-12T20:15:39.201Z,9.27
2018-06-12T20:18:08.066Z,11.10
2018-06-12T20:20:36.882Z,6.00
2018-06-12T20:23:05.766Z,10.87
2018-06-12T20:25:37.371Z,9.20
2018-06-12T20:28:06.295Z,8.53
2018-06-12T20:30:35.406Z,8.43
2018-06-12T20:33:04.607Z,9.63
2018-06-12T20:35:33.455Z,6.20
2018-06-12T20:38:02.328Z,9.97
2018-06-12T20:40:31.090Z,6.20
2018-06-12T20:42:59.901Z,8.93
2018-06-12T20:45:29.206Z,7.20
2018-06-12T20:47:58.227Z,7.97
2018-06-12T20:50:27.305Z,7.50
2018-06-12T20:52:56.254Z,6.57
2018-06-12T20:55:24.971Z,8.03
2018-06-12T20:57:53.967Z,6.80
2018-06-12T21:00:23.062Z,5.17
2018-06-12T21:02:52.020Z,5.30
2018-06-12T21:05:20.822Z,5.43
2018-06-12T21:07:50.154Z,5.30
2018-06-12T21:10:19.136Z,3.40
2018-06-12T21:12:47.903Z,6.50
2018-06-12T21:15:19.891Z,6.97
2018-06-12T21:17:48.577Z,5.17
2018-06-12T21:20:17.308Z,4.53
2018-06-12T21:22:46.016Z,3.43
2018-06-12T21:25:14.591Z,4.37
2018-06-12T21:27:43.267Z,4.27
2018-06-12T21:30:11.998Z,5.43
2018-06-12T21:32:40.791Z,7.67
2018-06-12T21:35:09.441Z,5.40
2018-06-12T21:37:38.113Z,4.33
2018-06-12T21:40:06.923Z,4.27
2018-06-12T21:42:35.670Z,4.30
2018-06-12T21:45:04.454Z,4.33
2018-06-12T21:47:33.288Z,3.00
2018-06-12T21:50:02.075Z,3.47
2018-06-12T21:52:30.826Z,4.67
2018-06-12T21:54:59.529Z,3.23
2018-06-12T21:57:28.264Z,4.43
2018-06-12T21:59:57.020Z,4.73
2018-06-12T22:02:25.736Z,2.93
2018-06-12T22:07:57.344Z,3.10
2018-06-12T22:10:26.256Z,3.53
2018-06-12T22:12:55.005Z,3.27
2018-06-12T22:15:23.644Z,4.33
2018-06-12T22:17:53.271Z,4.37
2018-06-12T22:20:21.910Z,5.07
2018-06-12T22:22:50.609Z,3.60
2018-06-12T22:25:19.353Z,4.50
2018-06-12T22:27:48.272Z,2.80
2018-06-12T22:30:17.614Z,4.00
2018-06-12T22:32:46.302Z,5.33
2018-06-12T22:35:15.056Z,4.53
2018-06-12T22:37:43.824Z,3.23
2018-06-12T22:40:12.654Z,4.60
2018-06-12T22:42:41.322Z,5.13
2018-06-12T22:45:09.934Z,4.47
2018-06-12T22:47:38.677Z,4.03
2018-06-12T22:50:07.410Z,2.20
2018-06-12T22:52:36.161Z,4.20
2018-06-12T22:55:05.019Z,3.87
2018-06-12T22:57:33.662Z,3.83
2018-06-12T23:00:02.367Z,4.50
2018-06-12T23:02:31.061Z,5.00
2018-06-12T23:04:59.855Z,3.00
2018-06-12T23:07:28.633Z,3.60
2018-06-12T23:09:57.410Z,3.10
2018-06-12T23:12:26.134Z,5.17
2018-06-12T23:14:54.929Z,2.97
2018-06-12T23:17:23.677Z,2.93
2018-06-12T23:20:03.454Z,3.03
2018-06-12T23:22:32.230Z,3.53
2018-06-12T23:25:01.257Z,3.47
2018-06-12T23:27:30.039Z,3.97
2018-06-12T23:29:58.758Z,3.70
2018-06-12T23:32:27.569Z,3.43
2018-06-12T23:34:56.290Z,3.57
2018-06-12T23:37:25.381Z,3.63
2018-06-12T23:39:54.013Z,3.63
2018-06-12T23:42:22.817Z,3.63
2018-06-12T23:44:51.405Z,4.20
2018-06-12T23:47:20.011Z,3.33
2018-06-12T23:49:48.800Z,3.87
2018-06-12T23:52:17.619Z,1.67
2018-06-12T23:54:46.382Z,5.77
2018-06-12T23:57:15.110Z,2.90
2018-06-12T23:59:43.853Z,2.90
